Terminal Aerodrome Forecast
Issued by NWS

Home | Current Version | Previous Version | Text Only | Print | Product List | Glossary On
Versions: 1 2 3 4 5 6 7 8 9 10 11 12 13 14 15 16 17 18 19 20 21 22 23 24 25 26 27 28 29 30 31
000
FTUS41 KBOX 012320
TAFHYA
TAF
KHYA 012320Z 0200/0224 04013G23KT 3SM RA BR OVC006
     FM021100 05015G27KT 3SM -RA BR OVC010
     FM021600 04015G26KT P6SM OVC015=

USA.gov is the U.S. government's official web portal to all federal, state and local government web resources and services.